Wateringbury, United Kingdom
Current Conditions -  °F | °C
As of 2:50 PM on Sunday 21 Dec 2014 (Local Time) from EGKB Reporting Station
Broken Clouds Broken Clouds  
Wind Chill: 42°   Ceiling: 1900
Heat Index: 48°   Visibility: 6mi
Dew Point: 39°   Wind: 15mph
Humidity: 71%   Direction: 250°WSW
Pressure: 30.27"   Gusts: NA
Location:  51.26°N, 0.42°E
Report Text: EGKB 211450Z 25013KT 210V270 9999 BKN019 09/04 Q1025
Loading
Personal Weather Stations






























Interactive Weather Map New forecast layout! Learn more

10-Day Weather Forecast

Advertisements
Track Severe Weather on mobile